createdAt,value
2016-12-02T00:00:24.891Z,10.56
2016-12-02T00:00:50.979Z,10.51
2016-12-02T00:01:17.105Z,10.49
2016-12-02T00:01:43.197Z,10.56
2016-12-02T00:02:09.282Z,10.44
2016-12-02T00:02:35.381Z,10.44
2016-12-02T00:03:01.475Z,10.49
2016-12-02T00:03:27.561Z,10.46
2016-12-02T00:03:53.660Z,10.54
2016-12-02T00:04:19.757Z,10.56
2016-12-02T00:04:45.848Z,10.57
2016-12-02T00:05:11.937Z,10.51
2016-12-02T00:05:38.021Z,10.49
2016-12-02T00:06:04.145Z,10.42
2016-12-02T00:06:30.235Z,10.41
2016-12-02T00:06:56.317Z,10.41
2016-12-02T00:07:22.414Z,10.44
2016-12-02T00:07:48.516Z,10.35
2016-12-02T00:08:14.600Z,10.38
2016-12-02T00:08:40.692Z,10.38
2016-12-02T00:09:06.790Z,10.42
2016-12-02T00:09:32.876Z,10.42
2016-12-02T00:09:58.968Z,10.44
2016-12-02T00:10:25.054Z,10.42
2016-12-02T00:10:51.152Z,10.38
2016-12-02T00:11:17.251Z,10.38
2016-12-02T00:11:43.334Z,10.37
2016-12-02T00:12:09.425Z,10.41
2016-12-02T00:12:35.523Z,10.42
2016-12-02T00:13:01.615Z,10.41
2016-12-02T00:13:27.709Z,10.38
2016-12-02T00:13:53.808Z,10.42
2016-12-02T00:14:19.895Z,10.44
2016-12-02T00:14:45.979Z,10.44
2016-12-02T00:15:12.080Z,10.41
2016-12-02T00:15:38.170Z,10.42
2016-12-02T00:16:04.267Z,10.42
2016-12-02T00:16:30.353Z,10.46
2016-12-02T00:16:56.446Z,10.46
2016-12-02T00:17:22.549Z,10.4
2016-12-02T00:17:48.636Z,10.41
2016-12-02T00:18:14.721Z,10.49
2016-12-02T00:18:40.821Z,10.42
2016-12-02T00:19:06.909Z,10.37
2016-12-02T00:19:32.996Z,10.4
2016-12-02T00:19:59.093Z,10.41
2016-12-02T00:20:25.188Z,10.41
2016-12-02T00:20:51.278Z,10.46
2016-12-02T00:21:17.374Z,10.48
2016-12-02T00:21:43.454Z,10.41
2016-12-02T00:22:09.557Z,10.48
2016-12-02T00:22:35.643Z,10.46
2016-12-02T00:23:01.727Z,10.44
2016-12-02T00:23:27.822Z,10.38
2016-12-02T00:23:53.917Z,10.44
2016-12-02T00:24:20.003Z,10.46
2016-12-02T00:24:46.099Z,10.46
2016-12-02T00:25:12.194Z,10.41
2016-12-02T00:25:38.275Z,10.42
2016-12-02T00:26:04.372Z,10.46
2016-12-02T00:26:30.473Z,10.42
2016-12-02T00:26:56.556Z,10.37
2016-12-02T00:27:22.657Z,10.44
2016-12-02T00:27:48.746Z,10.34
2016-12-02T00:28:14.844Z,10.28
2016-12-02T00:28:40.943Z,10.44
2016-12-02T00:29:07.025Z,10.38
2016-12-02T00:29:33.121Z,10.41
2016-12-02T00:29:59.214Z,10.44
2016-12-02T00:30:25.302Z,10.41
2016-12-02T00:30:51.391Z,10.41
2016-12-02T00:31:17.487Z,10.42
2016-12-02T00:31:43.574Z,10.41
2016-12-02T00:32:09.660Z,10.34
2016-12-02T00:32:35.760Z,10.3
2016-12-02T00:33:01.851Z,10.31
2016-12-02T00:33:27.932Z,10.28
2016-12-02T00:33:54.032Z,10.37
2016-12-02T00:34:20.158Z,10.49
2016-12-02T00:34:46.244Z,10.46
2016-12-02T00:35:12.334Z,10.44
2016-12-02T00:35:38.435Z,10.37
2016-12-02T00:36:04.518Z,10.38
2016-12-02T00:36:30.612Z,10.41
2016-12-02T00:36:56.712Z,10.42
2016-12-02T00:37:22.799Z,10.42
2016-12-02T00:37:48.888Z,10.42
2016-12-02T00:38:14.975Z,10.42
2016-12-02T00:38:41.074Z,10.44
2016-12-02T00:39:07.172Z,10.53
2016-12-02T00:39:33.254Z,10.54
2016-12-02T00:39:59.349Z,10.42
2016-12-02T00:40:25.451Z,10.42
2016-12-02T00:40:51.643Z,10.4
2016-12-02T00:41:17.733Z,10.41
2016-12-02T00:41:43.831Z,10.37
2016-12-02T00:42:09.920Z,10.44
2016-12-02T00:42:35.997Z,10.42
2016-12-02T00:43:02.101Z,10.4
2016-12-02T00:43:28.189Z,10.44
2016-12-02T00:43:54.288Z,10.41
2016-12-02T00:44:20.372Z,10.44
2016-12-02T00:44:46.464Z,10.4
2016-12-02T00:45:12.562Z,10.4
2016-12-02T00:45:38.643Z,10.41
2016-12-02T00:46:04.727Z,10.44
2016-12-02T00:46:30.824Z,10.35
2016-12-02T00:46:56.927Z,10.51
2016-12-02T00:47:23.000Z,10.41
2016-12-02T00:47:49.100Z,10.44
2016-12-02T00:48:15.194Z,10.44
2016-12-02T00:48:41.277Z,10.42
2016-12-02T00:49:07.376Z,10.42
2016-12-02T00:49:33.465Z,10.37
2016-12-02T00:49:59.570Z,10.42
2016-12-02T00:50:25.672Z,10.44
2016-12-02T00:50:51.751Z,10.44
2016-12-02T00:51:17.849Z,10.42
2016-12-02T00:51:43.938Z,10.37
2016-12-02T00:52:10.020Z,10.41
2016-12-02T00:52:36.117Z,10.42
2016-12-02T00:53:02.217Z,10.48
2016-12-02T00:53:28.293Z,10.4
2016-12-02T00:53:54.391Z,10.37
2016-12-02T00:54:20.481Z,10.37
2016-12-02T00:54:46.563Z,10.46
2016-12-02T00:55:12.656Z,10.41
2016-12-02T00:55:38.742Z,10.46
2016-12-02T00:56:04.841Z,10.41
2016-12-02T00:56:30.939Z,10.38
2016-12-02T00:56:57.017Z,10.51
2016-12-02T00:57:23.114Z,10.41
2016-12-02T00:57:49.216Z,10.41
2016-12-02T00:58:15.299Z,10.38
2016-12-02T00:58:41.388Z,10.37
2016-12-02T00:59:07.490Z,10.48
2016-12-02T00:59:33.576Z,10.35
2016-12-02T00:59:59.659Z,10.44
2016-12-02T01:00:25.763Z,10.4
2016-12-02T01:00:51.848Z,10.44
2016-12-02T01:01:17.945Z,10.42
2016-12-02T01:01:44.027Z,10.41
2016-12-02T01:02:10.116Z,10.34
2016-12-02T01:02:36.214Z,10.34
2016-12-02T01:03:02.300Z,10.26
2016-12-02T01:03:28.388Z,10.34
2016-12-02T01:03:54.490Z,10.31
2016-12-02T01:04:20.579Z,10.3
2016-12-02T01:04:46.659Z,10.38
2016-12-02T01:05:12.762Z,10.31
2016-12-02T01:05:38.855Z,10.28
2016-12-02T01:06:04.951Z,10.31
2016-12-02T01:06:31.038Z,10.25
2016-12-02T01:06:57.128Z,10.31
2016-12-02T01:07:23.224Z,10.35
2016-12-02T01:07:49.316Z,10.28
2016-12-02T01:08:15.398Z,10.28
2016-12-02T01:08:41.493Z,10.31
2016-12-02T01:09:07.588Z,10.26
2016-12-02T01:09:33.674Z,10.28
2016-12-02T01:09:59.767Z,10.34
2016-12-02T01:10:25.866Z,10.34
2016-12-02T01:10:52.047Z,10.35
2016-12-02T01:11:18.139Z,10.34
2016-12-02T01:11:44.229Z,10.35
2016-12-02T01:12:10.325Z,10.34
2016-12-02T01:12:36.418Z,10.4
2016-12-02T01:13:02.498Z,10.26
2016-12-02T01:13:28.596Z,10.33
2016-12-02T01:13:54.696Z,10.33
2016-12-02T01:14:20.776Z,10.31
2016-12-02T01:14:46.871Z,10.34
2016-12-02T01:15:12.968Z,10.31
2016-12-02T01:15:39.054Z,10.35
2016-12-02T01:16:05.137Z,10.37
2016-12-02T01:16:31.232Z,10.26
2016-12-02T01:16:57.317Z,10.26
2016-12-02T01:17:23.400Z,10.3
2016-12-02T01:17:49.495Z,10.33
2016-12-02T01:18:15.588Z,10.37
2016-12-02T01:18:41.676Z,10.4
2016-12-02T01:19:07.772Z,10.4
2016-12-02T01:19:33.865Z,10.41
2016-12-02T01:19:59.943Z,10.42
2016-12-02T01:20:26.044Z,10.41
2016-12-02T01:20:52.138Z,10.38
2016-12-02T01:21:18.221Z,10.42
2016-12-02T01:21:44.317Z,10.41
2016-12-02T01:22:10.419Z,10.42
2016-12-02T01:22:36.501Z,10.41
2016-12-02T01:23:02.595Z,10.41
2016-12-02T01:23:28.679Z,10.42
2016-12-02T01:23:54.776Z,10.28
2016-12-02T01:24:20.875Z,10.28
2016-12-02T01:24:46.952Z,10.31
2016-12-02T01:25:13.043Z,10.3
2016-12-02T01:25:39.141Z,10.26
2016-12-02T01:26:05.552Z,10.34
2016-12-02T01:26:31.647Z,10.38
2016-12-02T01:26:57.741Z,10.46
2016-12-02T01:27:23.826Z,10.44
2016-12-02T01:27:49.906Z,10.44
2016-12-02T01:28:16.006Z,10.42
2016-12-02T01:28:42.101Z,10.42
2016-12-02T01:29:08.198Z,10.35
2016-12-02T01:29:34.278Z,10.31
2016-12-02T01:30:00.373Z,10.38
2016-12-02T01:30:26.476Z,10.31
2016-12-02T01:30:52.567Z,10.35
2016-12-02T01:31:18.654Z,10.4
2016-12-02T01:31:44.750Z,10.26
2016-12-02T01:32:10.833Z,10.25
2016-12-02T01:32:36.919Z,10.34
2016-12-02T01:33:03.020Z,10.26
2016-12-02T01:33:29.111Z,10.26
2016-12-02T01:33:55.208Z,10.22
2016-12-02T01:34:21.294Z,10.31
2016-12-02T01:34:47.375Z,10.31
2016-12-02T01:35:13.475Z,10.25
2016-12-02T01:35:39.567Z,10.26
2016-12-02T01:36:05.649Z,10.26
2016-12-02T01:36:31.746Z,10.3
2016-12-02T01:36:57.843Z,10.28
2016-12-02T01:37:23.926Z,10.2
2016-12-02T01:37:50.021Z,10.22
2016-12-02T01:38:16.123Z,10.25
2016-12-02T01:38:42.197Z,10.25
2016-12-02T01:39:08.292Z,10.19
2016-12-02T01:39:34.379Z,10.22
2016-12-02T01:40:00.479Z,10.33
2016-12-02T01:40:26.566Z,10.26
2016-12-02T01:40:52.653Z,10.26
2016-12-02T01:41:18.849Z,10.3
2016-12-02T01:41:44.944Z,10.33
2016-12-02T01:42:11.027Z,10.2
2016-12-02T01:42:37.122Z,10.19
2016-12-02T01:43:03.222Z,10.31
2016-12-02T01:43:29.307Z,10.19
2016-12-02T01:43:55.394Z,10.17
2016-12-02T01:44:21.518Z,10.31
2016-12-02T01:44:47.609Z,10.26
2016-12-02T01:45:13.703Z,10.19
2016-12-02T01:45:39.786Z,10.25
2016-12-02T01:46:05.872Z,10.23
2016-12-02T01:46:31.971Z,10.25
2016-12-02T01:46:58.058Z,10.15
2016-12-02T01:47:24.149Z,10.34
2016-12-02T01:47:50.246Z,10.31
2016-12-02T01:48:16.329Z,10.28
2016-12-02T01:48:42.412Z,10.33
2016-12-02T01:49:08.508Z,10.37
2016-12-02T01:49:34.600Z,10.35
2016-12-02T01:50:00.683Z,10.33
2016-12-02T01:50:26.782Z,10.31
2016-12-02T01:50:52.868Z,10.28
2016-12-02T01:51:18.968Z,10.25
2016-12-02T01:51:45.055Z,10.23
2016-12-02T01:52:11.134Z,10.35
2016-12-02T01:52:37.237Z,10.35
2016-12-02T01:53:03.329Z,10.35
2016-12-02T01:53:29.415Z,10.26
2016-12-02T01:53:55.513Z,10.23
2016-12-02T01:54:21.606Z,10.35
2016-12-02T01:54:47.689Z,10.37
2016-12-02T01:55:13.785Z,10.33
2016-12-02T01:55:39.880Z,10.3
2016-12-02T01:56:05.968Z,10.33
2016-12-02T01:56:32.360Z,10.33
2016-12-02T01:56:58.448Z,10.35
2016-12-02T01:57:24.547Z,10.31
2016-12-02T01:57:50.636Z,10.33
2016-12-02T01:58:16.722Z,10.23
2016-12-02T01:58:42.817Z,10.26
2016-12-02T01:59:08.915Z,10.35
2016-12-02T01:59:34.995Z,10.28
2016-12-02T02:00:01.091Z,10.26
2016-12-02T02:00:27.192Z,10.31
2016-12-02T02:00:53.270Z,10.19
2016-12-02T02:01:19.359Z,10.23
2016-12-02T02:01:45.461Z,10.35
2016-12-02T02:02:11.547Z,10.28
2016-12-02T02:02:37.626Z,10.33
2016-12-02T02:03:03.728Z,10.33
2016-12-02T02:03:29.812Z,10.31
2016-12-02T02:03:55.894Z,10.33
2016-12-02T02:04:21.992Z,10.33
2016-12-02T02:04:48.088Z,10.31
2016-12-02T02:05:14.170Z,10.31
2016-12-02T02:05:40.268Z,10.33
2016-12-02T02:06:06.366Z,10.34
2016-12-02T02:06:32.447Z,10.34
2016-12-02T02:06:58.541Z,10.33
2016-12-02T02:07:24.629Z,10.33
2016-12-02T02:07:50.728Z,10.26
2016-12-02T02:08:16.855Z,10.31
2016-12-02T02:08:42.935Z,10.25
2016-12-02T02:09:09.022Z,10.22
2016-12-02T02:09:35.120Z,10.31
2016-12-02T02:10:01.202Z,10.25
2016-12-02T02:10:27.302Z,10.33
2016-12-02T02:10:53.402Z,10.2
2016-12-02T02:11:19.583Z,10.33
2016-12-02T02:11:45.674Z,10.2
2016-12-02T02:12:11.767Z,10.25
2016-12-02T02:12:37.852Z,10.3
2016-12-02T02:13:03.949Z,10.22
2016-12-02T02:13:30.030Z,10.31
2016-12-02T02:13:56.120Z,10.26
2016-12-02T02:14:22.221Z,10.33
2016-12-02T02:14:48.303Z,10.31
2016-12-02T02:15:14.396Z,10.31
2016-12-02T02:15:40.492Z,10.3
2016-12-02T02:16:06.575Z,10.37
2016-12-02T02:16:32.651Z,10.51
2016-12-02T02:16:58.753Z,10.42
2016-12-02T02:17:24.846Z,10.4
2016-12-02T02:17:50.933Z,10.46
2016-12-02T02:18:17.032Z,10.41
2016-12-02T02:18:43.113Z,10.41
2016-12-02T02:19:09.212Z,10.41
2016-12-02T02:19:35.299Z,10.4
2016-12-02T02:20:01.385Z,10.3
2016-12-02T02:20:27.484Z,10.35
2016-12-02T02:20:53.579Z,10.33
2016-12-02T02:21:19.664Z,10.28
2016-12-02T02:21:45.763Z,10.22
2016-12-02T02:22:11.855Z,10.19
2016-12-02T02:22:37.940Z,10.26
2016-12-02T02:23:04.034Z,10.3
2016-12-02T02:23:30.133Z,10.22
2016-12-02T02:23:56.218Z,10.31
2016-12-02T02:24:22.308Z,10.28
2016-12-02T02:24:48.393Z,10.3
2016-12-02T02:25:14.491Z,10.2
2016-12-02T02:25:40.586Z,10.26
2016-12-02T02:26:06.692Z,10.28
2016-12-02T02:26:33.086Z,10.28
2016-12-02T02:26:59.187Z,10.3
2016-12-02T02:27:25.267Z,10.25
2016-12-02T02:27:51.356Z,10.22
2016-12-02T02:28:17.459Z,10.25
2016-12-02T02:28:43.544Z,10.19
2016-12-02T02:29:09.658Z,10.28
2016-12-02T02:29:35.744Z,10.33
2016-12-02T02:30:01.836Z,10.33
2016-12-02T02:30:27.935Z,10.31
2016-12-02T02:30:54.016Z,10.3
2016-12-02T02:31:20.109Z,10.25
2016-12-02T02:31:46.212Z,10.37
2016-12-02T02:32:12.298Z,10.33
2016-12-02T02:32:38.391Z,10.35
2016-12-02T02:33:04.489Z,10.33
2016-12-02T02:33:30.578Z,10.4
2016-12-02T02:33:56.667Z,10.35
2016-12-02T02:34:22.764Z,10.31
2016-12-02T02:34:48.857Z,10.41
2016-12-02T02:35:14.959Z,10.4
2016-12-02T02:35:41.042Z,10.37
2016-12-02T02:36:07.124Z,10.34
2016-12-02T02:36:33.219Z,10.26
2016-12-02T02:36:59.310Z,10.33
2016-12-02T02:37:25.396Z,10.35
2016-12-02T02:37:51.499Z,10.25
2016-12-02T02:38:17.588Z,10.28
2016-12-02T02:38:43.675Z,10.34
2016-12-02T02:39:09.775Z,10.3
2016-12-02T02:39:35.863Z,10.25
2016-12-02T02:40:01.950Z,10.19
2016-12-02T02:40:28.047Z,10.23
2016-12-02T02:40:54.135Z,10.37
2016-12-02T02:41:20.239Z,10.28
2016-12-02T02:41:46.434Z,10.3
2016-12-02T02:42:12.515Z,10.28
2016-12-02T02:42:38.617Z,10.25
2016-12-02T02:43:04.712Z,10.3
2016-12-02T02:43:30.796Z,10.25
2016-12-02T02:43:56.887Z,10.34
2016-12-02T02:44:22.987Z,10.28
2016-12-02T02:44:49.067Z,10.37
2016-12-02T02:45:15.161Z,10.38
2016-12-02T02:45:41.257Z,10.26
2016-12-02T02:46:07.339Z,10.31
2016-12-02T02:46:33.430Z,10.25
2016-12-02T02:46:59.555Z,10.25
2016-12-02T02:47:25.641Z,10.28
2016-12-02T02:47:51.729Z,10.25
2016-12-02T02:48:17.826Z,10.23
2016-12-02T02:48:43.919Z,10.33
2016-12-02T02:49:10.003Z,10.33
2016-12-02T02:49:36.105Z,10.31
2016-12-02T02:50:02.198Z,10.2
2016-12-02T02:50:28.285Z,10.19
2016-12-02T02:50:54.376Z,10.22
2016-12-02T02:51:20.471Z,10.26
2016-12-02T02:51:46.558Z,10.2
2016-12-02T02:52:12.651Z,10.22
2016-12-02T02:52:38.735Z,10.23
2016-12-02T02:53:04.835Z,10.15
2016-12-02T02:53:30.951Z,10.19
2016-12-02T02:53:57.034Z,10.17
2016-12-02T02:54:23.127Z,10.22
2016-12-02T02:54:49.225Z,10.26
2016-12-02T02:55:15.307Z,10.26
2016-12-02T02:55:41.400Z,10.26
2016-12-02T02:56:07.500Z,10.26
2016-12-02T02:56:33.585Z,10.19
2016-12-02T02:56:59.976Z,10.16
2016-12-02T02:57:26.065Z,10.25
2016-12-02T02:57:52.158Z,10.17
2016-12-02T02:58:18.253Z,10.17
2016-12-02T02:58:44.337Z,10.23
2016-12-02T02:59:10.432Z,10.26
2016-12-02T02:59:36.532Z,10.15
2016-12-02T03:00:02.615Z,10.13
2016-12-02T03:00:28.707Z,10.09
2016-12-02T03:00:54.814Z,10.17
2016-12-02T03:01:20.895Z,10.19
2016-12-02T03:01:46.974Z,10.13
2016-12-02T03:02:13.072Z,10.1
2016-12-02T03:02:39.161Z,10.13
2016-12-02T03:03:05.255Z,10.12
2016-12-02T03:03:31.339Z,10.16
2016-12-02T03:03:57.427Z,10.09
2016-12-02T03:04:23.531Z,10.02
2016-12-02T03:04:49.612Z,10.04
2016-12-02T03:05:15.699Z,10.13
2016-12-02T03:05:41.793Z,10.15
2016-12-02T03:06:07.881Z,10.12
2016-12-02T03:06:33.965Z,10.15
2016-12-02T03:07:00.063Z,9.98
2016-12-02T03:07:26.155Z,10.13
2016-12-02T03:07:52.241Z,10.13
2016-12-02T03:08:18.341Z,10.15
2016-12-02T03:08:44.421Z,10.1
2016-12-02T03:09:10.522Z,10.17
2016-12-02T03:09:36.608Z,10.19
2016-12-02T03:10:02.694Z,10.28
2016-12-02T03:10:28.790Z,10.28
2016-12-02T03:10:54.914Z,10.3
2016-12-02T03:11:21.014Z,10.23
2016-12-02T03:11:47.109Z,10.17
2016-12-02T03:12:13.305Z,10.34
2016-12-02T03:12:39.383Z,10.3
2016-12-02T03:13:05.478Z,10.17
2016-12-02T03:13:31.578Z,10.34
2016-12-02T03:13:57.664Z,10.33
2016-12-02T03:14:23.758Z,10.26
2016-12-02T03:14:49.841Z,10.31
2016-12-02T03:15:15.939Z,10.23
2016-12-02T03:15:42.041Z,10.26
2016-12-02T03:16:08.117Z,10.28
2016-12-02T03:16:34.207Z,10.26
2016-12-02T03:17:00.305Z,10.22
2016-12-02T03:17:26.390Z,10.25
2016-12-02T03:17:52.481Z,10.25
2016-12-02T03:18:18.578Z,10.3
2016-12-02T03:18:44.661Z,10.28
2016-12-02T03:19:10.743Z,10.26
2016-12-02T03:19:36.839Z,10.26
2016-12-02T03:20:02.935Z,10.23
2016-12-02T03:20:29.028Z,10.3
2016-12-02T03:20:55.112Z,10.3
2016-12-02T03:21:21.202Z,10.28
2016-12-02T03:21:47.296Z,10.23
2016-12-02T03:22:13.387Z,10.28
2016-12-02T03:22:39.473Z,10.3
2016-12-02T03:23:05.571Z,10.28
2016-12-02T03:23:31.657Z,10.3
2016-12-02T03:23:57.738Z,10.26
2016-12-02T03:24:23.837Z,10.26
2016-12-02T03:24:49.933Z,10.3
2016-12-02T03:25:16.026Z,10.28
2016-12-02T03:25:42.112Z,10.19
2016-12-02T03:26:08.201Z,10.28
2016-12-02T03:26:34.293Z,10.31
2016-12-02T03:27:00.381Z,10.28
2016-12-02T03:27:26.465Z,10.26
2016-12-02T03:27:52.563Z,10.3
2016-12-02T03:28:18.653Z,10.26
2016-12-02T03:28:44.732Z,10.23
2016-12-02T03:29:10.832Z,10.3
2016-12-02T03:29:36.931Z,10.25
2016-12-02T03:30:03.011Z,10.28
2016-12-02T03:30:29.101Z,10.26
2016-12-02T03:30:55.197Z,10.25
2016-12-02T03:31:21.279Z,10.31
2016-12-02T03:31:47.368Z,10.3
2016-12-02T03:32:13.465Z,10.26
2016-12-02T03:32:39.550Z,10.26
2016-12-02T03:33:05.634Z,10.2
2016-12-02T03:33:31.740Z,10.26
2016-12-02T03:33:57.830Z,10.33
2016-12-02T03:34:23.914Z,10.3
2016-12-02T03:34:50.012Z,10.31
2016-12-02T03:35:16.102Z,10.22
2016-12-02T03:35:42.185Z,10.25
2016-12-02T03:36:08.283Z,10.25
2016-12-02T03:36:34.362Z,10.34
2016-12-02T03:37:00.458Z,10.31
2016-12-02T03:37:26.550Z,10.19
2016-12-02T03:37:52.635Z,10.19
2016-12-02T03:38:18.732Z,10.16
2016-12-02T03:38:44.828Z,10.17
2016-12-02T03:39:10.908Z,10.2
2016-12-02T03:39:37.006Z,10.22
2016-12-02T03:40:03.107Z,10.28
2016-12-02T03:40:29.189Z,10.25
2016-12-02T03:40:55.289Z,10.28
2016-12-02T03:41:21.387Z,10.3
2016-12-02T03:41:47.475Z,10.26
2016-12-02T03:42:13.668Z,10.17
2016-12-02T03:42:39.754Z,10.2
2016-12-02T03:43:05.851Z,10.17
2016-12-02T03:43:31.950Z,10.17
2016-12-02T03:43:58.032Z,10.16
2016-12-02T03:44:24.125Z,10.3
2016-12-02T03:44:50.222Z,10.31
2016-12-02T03:45:16.306Z,10.25
2016-12-02T03:45:42.393Z,10.26
2016-12-02T03:46:08.492Z,10.3
2016-12-02T03:46:34.581Z,10.26
2016-12-02T03:47:00.662Z,10.26
2016-12-02T03:47:27.308Z,10.25
2016-12-02T03:47:53.429Z,10.26
2016-12-02T03:48:19.526Z,10.33
2016-12-02T03:48:45.609Z,10.31
2016-12-02T03:49:11.696Z,10.22
2016-12-02T03:49:37.791Z,10.28
2016-12-02T03:50:03.880Z,10.25
2016-12-02T03:50:29.963Z,10.34
2016-12-02T03:50:56.064Z,10.34
2016-12-02T03:51:22.150Z,10.34
2016-12-02T03:51:48.229Z,10.3
2016-12-02T03:52:14.327Z,10.31
2016-12-02T03:52:40.418Z,10.48
2016-12-02T03:53:06.498Z,10.42
2016-12-02T03:53:32.592Z,10.34
2016-12-02T03:53:58.686Z,10.41
2016-12-02T03:54:24.769Z,10.38
2016-12-02T03:54:50.858Z,10.41
2016-12-02T03:55:16.957Z,10.31
2016-12-02T03:55:43.041Z,10.37
2016-12-02T03:56:09.126Z,10.41
2016-12-02T03:56:35.219Z,10.44
2016-12-02T03:57:01.308Z,10.48
2016-12-02T03:57:27.393Z,10.46
2016-12-02T03:57:53.492Z,10.3
2016-12-02T03:58:19.581Z,10.35
2016-12-02T03:58:45.676Z,10.35
2016-12-02T03:59:11.764Z,10.4
2016-12-02T03:59:37.853Z,10.46
2016-12-02T04:00:03.952Z,10.44
2016-12-02T04:00:30.039Z,10.46
2016-12-02T04:00:56.120Z,10.41
2016-12-02T04:01:22.224Z,10.42
2016-12-02T04:01:48.313Z,10.37
2016-12-02T04:02:14.395Z,10.41
2016-12-02T04:02:40.490Z,10.51
2016-12-02T04:03:06.579Z,10.44
2016-12-02T04:03:32.665Z,10.38
2016-12-02T04:03:58.759Z,10.42
2016-12-02T04:04:24.847Z,10.41
2016-12-02T04:04:50.955Z,10.42
2016-12-02T04:05:17.034Z,10.41
2016-12-02T04:05:43.118Z,10.41
2016-12-02T04:06:09.218Z,10.46
2016-12-02T04:06:35.312Z,10.41
2016-12-02T04:07:01.403Z,10.42
2016-12-02T04:07:27.498Z,10.4
2016-12-02T04:07:53.594Z,10.44
2016-12-02T04:08:19.673Z,10.44
2016-12-02T04:08:45.762Z,10.4
2016-12-02T04:09:11.860Z,10.42
2016-12-02T04:09:37.942Z,10.4
2016-12-02T04:10:04.035Z,10.41
2016-12-02T04:10:30.127Z,10.41
2016-12-02T04:10:56.225Z,10.41
2016-12-02T04:11:22.327Z,10.44
2016-12-02T04:11:48.405Z,10.31
2016-12-02T04:12:14.497Z,10.38
2016-12-02T04:12:40.692Z,10.41
2016-12-02T04:13:06.776Z,10.37
2016-12-02T04:13:32.862Z,10.46
2016-12-02T04:13:58.961Z,10.34
2016-12-02T04:14:25.045Z,10.3
2016-12-02T04:14:51.128Z,10.35
2016-12-02T04:15:17.229Z,10.3
2016-12-02T04:15:43.314Z,10.28
2016-12-02T04:16:09.403Z,10.31
2016-12-02T04:16:35.501Z,10.37
2016-12-02T04:17:01.592Z,10.34
2016-12-02T04:17:27.681Z,10.37
2016-12-02T04:17:53.773Z,10.44
2016-12-02T04:18:19.872Z,10.41
2016-12-02T04:18:45.953Z,10.53
2016-12-02T04:19:12.051Z,10.41
2016-12-02T04:19:38.150Z,10.42
2016-12-02T04:20:04.228Z,10.46
2016-12-02T04:20:30.320Z,10.4
2016-12-02T04:20:56.404Z,10.42
2016-12-02T04:21:22.499Z,10.4
2016-12-02T04:21:48.593Z,10.4
2016-12-02T04:22:14.670Z,10.4
2016-12-02T04:22:40.763Z,10.41
2016-12-02T04:23:06.865Z,10.44
2016-12-02T04:23:32.945Z,10.48
2016-12-02T04:23:59.038Z,10.33
2016-12-02T04:24:25.136Z,10.44
2016-12-02T04:24:51.223Z,10.48
2016-12-02T04:25:17.304Z,10.44
2016-12-02T04:25:43.408Z,10.41
2016-12-02T04:26:09.499Z,10.41
2016-12-02T04:26:35.594Z,10.44
2016-12-02T04:27:01.677Z,10.53
2016-12-02T04:27:27.768Z,10.57
2016-12-02T04:27:54.171Z,10.6
2016-12-02T04:28:20.258Z,10.57
2016-12-02T04:28:46.342Z,10.59
2016-12-02T04:29:12.445Z,10.54
2016-12-02T04:29:38.531Z,10.4
2016-12-02T04:30:04.611Z,10.37
2016-12-02T04:30:30.710Z,10.42
2016-12-02T04:30:56.800Z,10.34
2016-12-02T04:31:22.902Z,10.26
2016-12-02T04:31:48.997Z,10.38
2016-12-02T04:32:15.079Z,10.41
2016-12-02T04:32:41.176Z,10.3
2016-12-02T04:33:07.265Z,10.26
2016-12-02T04:33:33.344Z,10.31
2016-12-02T04:33:59.442Z,10.34
2016-12-02T04:34:25.533Z,10.34
2016-12-02T04:34:51.616Z,10.22
2016-12-02T04:35:17.711Z,10.26
2016-12-02T04:35:43.806Z,10.34
2016-12-02T04:36:09.883Z,10.28
2016-12-02T04:36:35.977Z,10.25
2016-12-02T04:37:02.076Z,10.31
2016-12-02T04:37:28.159Z,10.28
2016-12-02T04:37:54.250Z,10.33
2016-12-02T04:38:20.334Z,10.2
2016-12-02T04:38:46.431Z,10.3
2016-12-02T04:39:12.532Z,10.31
2016-12-02T04:39:38.612Z,10.25
2016-12-02T04:40:04.708Z,10.25
2016-12-02T04:40:30.805Z,10.3
2016-12-02T04:40:56.884Z,10.28
2016-12-02T04:41:22.967Z,10.28
2016-12-02T04:41:49.062Z,10.25
2016-12-02T04:42:15.151Z,10.31
2016-12-02T04:42:41.331Z,10.25
2016-12-02T04:43:07.426Z,10.19
2016-12-02T04:43:33.514Z,10.26
2016-12-02T04:43:59.613Z,10.25
2016-12-02T04:44:25.693Z,10.25
2016-12-02T04:44:51.786Z,10.28
2016-12-02T04:45:17.889Z,10.34
2016-12-02T04:45:43.975Z,10.31
2016-12-02T04:46:10.055Z,10.34
2016-12-02T04:46:36.152Z,10.28
2016-12-02T04:47:02.242Z,10.23
2016-12-02T04:47:28.325Z,10.31
2016-12-02T04:47:54.418Z,10.33
2016-12-02T04:48:20.515Z,10.33
2016-12-02T04:48:46.610Z,10.26
2016-12-02T04:49:12.697Z,10.34
2016-12-02T04:49:38.775Z,10.33
2016-12-02T04:50:04.878Z,10.25
2016-12-02T04:50:30.968Z,10.3
2016-12-02T04:50:57.052Z,10.34
2016-12-02T04:51:23.150Z,10.28
2016-12-02T04:51:49.240Z,10.44
2016-12-02T04:52:15.315Z,10.41
2016-12-02T04:52:41.413Z,10.44
2016-12-02T04:53:07.512Z,10.46
2016-12-02T04:53:33.598Z,10.42
2016-12-02T04:53:59.690Z,10.42
2016-12-02T04:54:25.774Z,10.46
2016-12-02T04:54:51.872Z,10.46
2016-12-02T04:55:17.968Z,10.44
2016-12-02T04:55:44.047Z,10.4
2016-12-02T04:56:10.140Z,10.4
2016-12-02T04:56:36.243Z,10.42
2016-12-02T04:57:02.323Z,10.48
2016-12-02T04:57:28.411Z,10.42
2016-12-02T04:57:54.808Z,10.4
2016-12-02T04:58:20.892Z,10.3
2016-12-02T04:58:46.982Z,10.35
2016-12-02T04:59:13.102Z,10.4
2016-12-02T04:59:39.188Z,10.46
2016-12-02T05:00:05.271Z,10.42
2016-12-02T05:00:31.366Z,10.44
2016-12-02T05:00:57.457Z,10.48
2016-12-02T05:01:23.540Z,10.44
2016-12-02T05:01:49.636Z,10.42
2016-12-02T05:02:15.727Z,10.38
2016-12-02T05:02:41.815Z,10.42
2016-12-02T05:03:07.913Z,10.34
2016-12-02T05:03:34.011Z,10.33
2016-12-02T05:04:00.092Z,10.38
2016-12-02T05:04:26.185Z,10.34
2016-12-02T05:04:52.284Z,10.26
2016-12-02T05:05:18.373Z,10.33
2016-12-02T05:05:44.467Z,10.19
2016-12-02T05:06:10.571Z,10.26
2016-12-02T05:06:36.667Z,10.25
2016-12-02T05:07:02.761Z,10.16
2016-12-02T05:07:28.839Z,10.33
2016-12-02T05:07:54.930Z,10.33
2016-12-02T05:08:21.029Z,10.33
2016-12-02T05:08:47.111Z,10.26
2016-12-02T05:09:13.201Z,10.37
2016-12-02T05:09:39.296Z,10.4
2016-12-02T05:10:05.383Z,10.41
2016-12-02T05:10:31.464Z,10.44
2016-12-02T05:10:57.563Z,10.46
2016-12-02T05:11:23.653Z,10.42
2016-12-02T05:11:49.753Z,10.41
2016-12-02T05:12:15.837Z,10.42
2016-12-02T05:12:41.927Z,10.44
2016-12-02T05:13:08.025Z,10.4
2016-12-02T05:13:34.112Z,10.4
2016-12-02T05:14:00.195Z,10.4
2016-12-02T05:14:26.300Z,10.4
2016-12-02T05:14:52.388Z,10.42
2016-12-02T05:15:18.473Z,10.42
2016-12-02T05:15:44.574Z,10.42
2016-12-02T05:16:10.669Z,10.41
2016-12-02T05:16:36.763Z,10.44
2016-12-02T05:17:02.852Z,10.37
2016-12-02T05:17:28.937Z,10.44
2016-12-02T05:17:55.036Z,10.4
2016-12-02T05:18:21.128Z,10.37
2016-12-02T05:18:47.208Z,10.37
2016-12-02T05:19:13.303Z,10.25
2016-12-02T05:19:39.394Z,10.34
2016-12-02T05:20:05.474Z,10.3
2016-12-02T05:20:31.572Z,10.35
2016-12-02T05:20:57.692Z,10.37
2016-12-02T05:21:23.777Z,10.26
2016-12-02T05:21:49.871Z,10.31
2016-12-02T05:22:15.955Z,10.33
2016-12-02T05:22:42.055Z,10.38
2016-12-02T05:23:08.148Z,10.33
2016-12-02T05:23:34.227Z,10.26
2016-12-02T05:24:00.326Z,10.33
2016-12-02T05:24:26.425Z,10.34
2016-12-02T05:24:52.505Z,10.37
2016-12-02T05:25:18.602Z,10.28
2016-12-02T05:25:44.702Z,10.38
2016-12-02T05:26:10.810Z,10.37
2016-12-02T05:26:36.903Z,10.23
2016-12-02T05:27:02.998Z,10.25
2016-12-02T05:27:29.082Z,10.37
2016-12-02T05:27:55.181Z,10.31
2016-12-02T05:28:21.562Z,10.38
2016-12-02T05:28:47.675Z,10.35
2016-12-02T05:29:13.772Z,10.3
2016-12-02T05:29:39.857Z,10.31
2016-12-02T05:30:05.944Z,10.31
2016-12-02T05:30:32.037Z,10.23
2016-12-02T05:30:58.121Z,10.34
2016-12-02T05:31:24.205Z,10.35
2016-12-02T05:31:50.303Z,10.23
2016-12-02T05:32:16.389Z,10.33
2016-12-02T05:32:42.472Z,10.34
2016-12-02T05:33:08.570Z,10.26
2016-12-02T05:33:34.657Z,10.34
2016-12-02T05:34:00.754Z,10.31
2016-12-02T05:34:26.838Z,10.34
2016-12-02T05:34:52.922Z,10.26
2016-12-02T05:35:19.019Z,10.37
2016-12-02T05:35:45.111Z,10.26
2016-12-02T05:36:11.194Z,10.41
2016-12-02T05:36:37.291Z,10.37
2016-12-02T05:37:03.386Z,10.37
2016-12-02T05:37:29.469Z,10.4